Homeport Seattle

Current conditions, outlook, and status of Seattle.

 



Today is Pungenday, the 6th day of The Aftermath in the YOLD 3187

Content-type:text/html SDOT BRIDGE MINDER

Seattle Bridges

03:25:23 PM

Ballard OPEN   10:37:14 PM

Fremont OPEN   10:37:21 PM

University OPEN   10:37:14 PM

Montlake OPEN   10:37:38 PM

Lower Spokane OPEN   10:37:14 PM

1st Ave S OPEN   10:37:14 PM

South Park OPEN   12:50:54 PM

Note: Bridge data is only as reliable as the
@sdotbridges Twitter feed.




Seattle Tides

Click images to embiggen or to change display options




Content-type:text/html

national weather service

2021/10/25 21:53 KSEA 252153Z 18018G30KT 10SM FEW018 BKN039 OVC060 12/07 A2946 RMK AO2 PK WND 17037/2101 RAB2056E51 SLP980 P0002 T01170067
2021/10/25 21:53 KBFI 252153Z 17015G30KT 10SM BKN043 OVC055 12/07 A2946 RMK AO2 PK WND 19035/2059 RAE52 SLP975 P0001 T01220072


  KSEA KBFI
  SeaTac Airport Boeing Field
day: 25 25
time: 2153 2153
type: Automated Automated
cond: Fair Mostly Cloudy
     
Winds    
     
mph: 20 17
mph gusting: 34 34
kts: 18 15
kts gusting: 30 30
direction: 180 170
direction: South South
     
Temperature and Humidity    
     
temp F: 53 53
dew point F: 44 44
temp C: 12 12
dew point C: 07 07
rel. humidity: 71 71
     
windchill F: 47 48
windchill C: 8 8
heat index F: 89 89
heat index C: 31 31
     
Clouds and Visibility    
     
cloud cover: Cloudy Cloudy
visibility mi: 10 10
visibility km: 16 16
     
Air pressure    
     
in HG: 29.46 29.46
mm HG: 748 748
kg/cm: 1.017300936 1.017300936
psi: 14.46939684 14.46939684
millibar: 997 997
     
Experimental and Esoteric    
     
prec tmp: T01170067 T01220072
storm:
sea inHG: 29.47 29.45
sea mmHG: 748 748
sea kgcm: 1.01768056 1.0171707
sea psi: 14.4747924 14.4675405
sea mbar: 998 997
     



NOAA Weather Radio Seattle -- KHB60
[ continuous ]

KHB60 coverage map

[ view larger map ]

 


2021.10.25

22 : 25 UTC


Local Metric Time

9.34


Unix epoch

1635200723

stardate

 

External Links

weather

[ NOAA weather radio ]

Fire Department 911 Incidents

another date (mm/dd/yyyy)

Puget Sound Waters

salish sea hydrophone network

[ Home || seattle aquarium | pt. townsend | san juan isl | lime kiln s.p ]

Traffic

KC DOT Cameras

 


- * - poop - * -